createdAt,value
2022-12-20T00:01:56.661Z,3.60
2022-12-20T00:04:25.253Z,3.50
2022-12-20T00:06:53.639Z,3.40
2022-12-20T00:09:25.543Z,3.30
2022-12-20T00:11:53.778Z,3.20
2022-12-20T00:14:22.235Z,3.10
2022-12-20T00:16:51.046Z,3.00
2022-12-20T00:19:19.345Z,2.80
2022-12-20T00:21:47.767Z,2.70
2022-12-20T00:24:19.390Z,2.80
2022-12-20T00:26:53.989Z,2.80
2022-12-20T00:29:22.964Z,2.90
2022-12-20T00:31:51.465Z,3.00
2022-12-20T00:34:21.121Z,3.10
2022-12-20T00:36:49.666Z,3.20
2022-12-20T00:39:17.795Z,3.20
2022-12-20T00:41:46.853Z,3.20
2022-12-20T00:44:17.140Z,3.00
2022-12-20T00:46:47.667Z,3.00
2022-12-20T00:49:16.580Z,3.00
2022-12-20T00:51:44.811Z,3.00
2022-12-20T00:54:13.344Z,3.00
2022-12-20T00:56:42.207Z,3.00
2022-12-20T00:59:10.373Z,3.00
2022-12-20T01:01:40.386Z,3.00
2022-12-20T01:04:09.239Z,3.00
2022-12-20T01:06:38.432Z,3.10
2022-12-20T01:09:07.050Z,3.10
2022-12-20T01:11:36.744Z,3.00
2022-12-20T01:14:07.857Z,2.90
2022-12-20T01:16:37.598Z,2.90
2022-12-20T01:19:08.685Z,2.90
2022-12-20T01:21:37.073Z,2.90
2022-12-20T01:24:05.767Z,2.90
2022-12-20T01:26:33.867Z,2.90
2022-12-20T01:29:02.311Z,2.90
2022-12-20T01:31:32.880Z,2.90
2022-12-20T01:34:02.381Z,2.90
2022-12-20T01:36:33.273Z,2.90
2022-12-20T01:39:02.906Z,3.00
2022-12-20T01:41:33.564Z,3.00
2022-12-20T01:44:03.213Z,3.00
2022-12-20T01:46:32.904Z,3.10
2022-12-20T01:49:03.281Z,3.10
2022-12-20T01:51:35.191Z,3.00
2022-12-20T01:54:05.896Z,3.00
2022-12-20T01:56:35.154Z,3.00
2022-12-20T01:59:03.704Z,3.10
2022-12-20T02:01:33.980Z,3.10
2022-12-20T02:04:07.087Z,3.20
2022-12-20T02:06:38.000Z,3.20
2022-12-20T02:09:09.527Z,3.20
2022-12-20T02:11:54.021Z,3.20
2022-12-20T02:14:45.321Z,3.20
2022-12-20T02:17:19.136Z,3.10
2022-12-20T02:19:55.663Z,3.10
2022-12-20T02:22:31.653Z,3.00
2022-12-20T02:25:16.330Z,2.90
2022-12-20T02:27:55.639Z,2.80
2022-12-20T02:30:27.886Z,2.80
2022-12-20T02:33:00.610Z,2.90
2022-12-20T02:35:29.923Z,2.90
2022-12-20T02:38:00.047Z,3.00
2022-12-20T02:40:29.723Z,3.00
2022-12-20T02:42:59.606Z,3.10
2022-12-20T02:45:35.504Z,3.10
2022-12-20T02:48:07.278Z,3.10
2022-12-20T02:50:37.971Z,3.10
2022-12-20T02:53:07.711Z,3.10
2022-12-20T02:55:40.819Z,3.20
2022-12-20T02:58:13.592Z,3.30
2022-12-20T03:00:45.121Z,3.30
2022-12-20T03:03:26.995Z,3.40
2022-12-20T03:05:55.946Z,3.40
2022-12-20T03:08:32.922Z,3.50
2022-12-20T03:11:02.733Z,3.50
2022-12-20T03:13:33.621Z,3.40
2022-12-20T03:16:12.281Z,3.30
2022-12-20T03:18:41.603Z,3.30
2022-12-20T03:21:12.118Z,3.40
2022-12-20T03:23:41.425Z,3.30
2022-12-20T03:26:10.092Z,3.20
2022-12-20T03:28:49.518Z,3.20
2022-12-20T03:31:23.875Z,3.20
2022-12-20T03:33:58.652Z,3.10
2022-12-20T03:36:30.193Z,3.20
2022-12-20T03:39:02.678Z,3.20
2022-12-20T03:41:37.162Z,3.30
2022-12-20T03:44:05.986Z,3.40
2022-12-20T03:46:38.303Z,3.50
2022-12-20T03:49:06.967Z,3.60
2022-12-20T03:51:42.590Z,3.70
2022-12-20T03:54:12.495Z,3.80
2022-12-20T03:57:08.354Z,3.90
2022-12-20T03:59:37.639Z,4.00
2022-12-20T04:02:12.848Z,4.00
2022-12-20T04:04:41.851Z,4.00
2022-12-20T04:07:11.021Z,4.10
2022-12-20T04:09:41.161Z,4.10
2022-12-20T04:12:13.959Z,4.20
2022-12-20T04:14:43.716Z,4.20
2022-12-20T04:17:16.845Z,4.20
2022-12-20T04:19:45.336Z,4.20
2022-12-20T04:22:17.820Z,4.10
2022-12-20T04:24:59.000Z,4.00
2022-12-20T04:27:34.505Z,4.00
2022-12-20T04:30:08.967Z,4.00
2022-12-20T04:32:43.588Z,3.90
2022-12-20T04:35:13.309Z,3.90
2022-12-20T04:37:43.364Z,3.80
2022-12-20T04:40:16.616Z,3.70
2022-12-20T04:42:50.399Z,3.70
2022-12-20T04:45:24.868Z,3.70
2022-12-20T04:47:57.486Z,3.70
2022-12-20T04:50:35.721Z,3.60
2022-12-20T04:53:21.151Z,3.30
2022-12-20T04:55:51.972Z,3.10
2022-12-20T04:58:20.176Z,3.00
2022-12-20T05:00:56.811Z,3.00
2022-12-20T05:03:31.093Z,3.00
2022-12-20T05:05:59.506Z,3.10
2022-12-20T05:08:28.165Z,3.20
2022-12-20T05:10:57.499Z,3.30
2022-12-20T05:13:26.901Z,3.40
2022-12-20T05:15:57.049Z,3.30
2022-12-20T05:18:32.850Z,3.40
2022-12-20T05:21:25.431Z,3.50
2022-12-20T05:24:12.275Z,3.50
2022-12-20T05:26:58.951Z,3.60
2022-12-20T05:29:27.257Z,3.70
2022-12-20T05:31:57.357Z,3.80
2022-12-20T05:34:29.086Z,3.90
2022-12-20T05:36:57.946Z,4.00
2022-12-20T05:39:31.203Z,4.20
2022-12-20T05:42:02.739Z,4.30
2022-12-20T05:44:33.145Z,4.40
2022-12-20T05:47:02.845Z,4.40
2022-12-20T05:49:35.780Z,4.40
2022-12-20T05:52:15.845Z,4.40
2022-12-20T05:54:45.587Z,4.40
2022-12-20T05:57:18.276Z,4.30
2022-12-20T05:59:50.727Z,4.40
2022-12-20T06:02:25.853Z,4.40
2022-12-20T06:05:04.319Z,4.30
2022-12-20T06:07:33.316Z,4.10
2022-12-20T06:10:04.278Z,4.00
2022-12-20T06:12:49.372Z,3.90
2022-12-20T06:15:20.886Z,3.80
2022-12-20T06:17:52.090Z,3.70
2022-12-20T06:20:21.630Z,3.60
2022-12-20T06:22:52.736Z,3.60
2022-12-20T06:25:25.265Z,3.50
2022-12-20T06:27:54.887Z,3.50
2022-12-20T06:30:30.248Z,3.40
2022-12-20T06:33:09.530Z,3.30
2022-12-20T06:35:49.791Z,3.20
2022-12-20T06:38:20.829Z,3.10
2022-12-20T06:40:51.200Z,3.20
2022-12-20T06:43:21.725Z,3.20
2022-12-20T06:45:50.536Z,3.30
2022-12-20T06:48:34.297Z,3.50
2022-12-20T06:54:00.197Z,3.80
2022-12-20T06:56:37.704Z,3.90
2022-12-20T06:59:12.795Z,3.90
2022-12-20T07:01:43.590Z,4.00
2022-12-20T07:04:14.252Z,4.10
2022-12-20T07:06:48.263Z,4.20
2022-12-20T07:09:19.676Z,4.30
2022-12-20T07:11:48.427Z,4.40
2022-12-20T07:14:21.733Z,4.50
2022-12-20T07:16:51.509Z,4.70
2022-12-20T07:19:22.081Z,4.70
2022-12-20T07:21:51.744Z,4.80
2022-12-20T07:24:22.517Z,4.90
2022-12-20T07:26:51.442Z,4.90
2022-12-20T07:29:21.364Z,4.80
2022-12-20T07:31:49.775Z,4.80
2022-12-20T07:34:17.935Z,4.50
2022-12-20T07:36:49.277Z,4.30
2022-12-20T07:39:26.775Z,4.20
2022-12-20T07:41:55.250Z,4.00
2022-12-20T07:44:24.209Z,3.90
2022-12-20T07:46:53.519Z,3.80
2022-12-20T07:49:22.898Z,3.80
2022-12-20T07:51:57.033Z,3.80
2022-12-20T07:54:30.017Z,3.90
2022-12-20T07:57:02.517Z,3.80
2022-12-20T07:59:35.602Z,3.70
2022-12-20T08:02:06.754Z,3.50
2022-12-20T08:04:35.801Z,3.40
2022-12-20T08:07:03.957Z,3.40
2022-12-20T08:09:38.889Z,3.40
2022-12-20T08:12:08.827Z,3.40
2022-12-20T08:14:39.994Z,3.50
2022-12-20T08:17:08.191Z,3.60
2022-12-20T08:19:39.424Z,3.70
2022-12-20T08:22:07.446Z,3.80
2022-12-20T08:24:36.641Z,3.80
2022-12-20T08:27:04.950Z,3.90
2022-12-20T08:29:33.831Z,4.00
2022-12-20T08:32:03.092Z,4.10
2022-12-20T08:34:32.596Z,4.30
2022-12-20T08:37:04.391Z,4.50
2022-12-20T08:39:40.035Z,4.60
2022-12-20T08:42:08.031Z,4.60
2022-12-20T08:44:37.683Z,4.60
2022-12-20T08:47:06.643Z,4.60
2022-12-20T08:49:39.999Z,4.70
2022-12-20T08:52:12.588Z,4.60
2022-12-20T08:54:45.318Z,4.40
2022-12-20T09:00:16.965Z,4.50
2022-12-20T09:02:50.052Z,4.70
2022-12-20T09:05:18.603Z,4.80
2022-12-20T09:07:46.444Z,4.90
2022-12-20T09:10:15.829Z,5.10
2022-12-20T09:12:43.815Z,5.40
2022-12-20T09:15:13.236Z,5.60
2022-12-20T09:17:42.346Z,5.80
2022-12-20T09:20:14.058Z,6.00
2022-12-20T09:22:43.413Z,6.30
2022-12-20T09:25:12.025Z,6.40
2022-12-20T09:27:42.623Z,6.50
2022-12-20T09:30:10.880Z,6.60
2022-12-20T09:32:39.487Z,6.80
2022-12-20T09:35:15.473Z,7.00
2022-12-20T09:37:49.380Z,7.10
2022-12-20T09:40:22.640Z,7.30
2022-12-20T09:42:54.712Z,7.50
2022-12-20T09:45:28.218Z,7.70
2022-12-20T09:47:57.712Z,7.90
2022-12-20T09:50:37.002Z,8.00
2022-12-20T09:53:17.958Z,8.20
2022-12-20T09:55:54.914Z,8.30
2022-12-20T09:58:32.756Z,8.30
2022-12-20T10:01:11.773Z,8.30
2022-12-20T10:03:45.017Z,8.30
2022-12-20T10:06:16.824Z,7.90
2022-12-20T10:08:46.819Z,7.70
2022-12-20T10:11:25.613Z,7.50
2022-12-20T10:14:01.013Z,7.50
2022-12-20T10:16:36.341Z,7.50
2022-12-20T10:19:13.806Z,7.60
2022-12-20T10:21:47.679Z,7.60
2022-12-20T10:24:22.629Z,7.80
2022-12-20T10:26:52.361Z,7.90
2022-12-20T10:29:23.870Z,8.00
2022-12-20T10:31:54.803Z,8.10
2022-12-20T10:34:34.943Z,8.20
2022-12-20T10:37:14.720Z,8.30
2022-12-20T10:39:44.730Z,8.20
2022-12-20T10:42:29.531Z,8.30
2022-12-20T10:45:04.344Z,8.50
2022-12-20T10:47:38.902Z,8.60
2022-12-20T10:50:14.341Z,8.50
2022-12-20T10:52:52.156Z,8.60
2022-12-20T10:58:23.160Z,8.90
2022-12-20T11:01:04.185Z,9.10
2022-12-20T11:03:32.864Z,9.30
2022-12-20T11:06:02.426Z,9.60
2022-12-20T11:08:49.853Z,9.70
2022-12-20T11:11:27.444Z,9.90
2022-12-20T11:14:14.552Z,10.00
2022-12-20T11:16:47.518Z,10.10
2022-12-20T11:19:34.691Z,10.20
2022-12-20T11:22:09.041Z,10.40
2022-12-20T11:24:42.843Z,10.60
2022-12-20T11:27:21.024Z,10.80
2022-12-20T11:30:05.189Z,10.90
2022-12-20T11:32:48.364Z,10.90
2022-12-20T11:35:20.801Z,10.90
2022-12-20T11:37:53.865Z,10.90
2022-12-20T11:40:31.951Z,11.00
2022-12-20T11:43:05.927Z,10.90
2022-12-20T11:45:38.830Z,10.30
2022-12-20T11:48:23.477Z,9.80
2022-12-20T11:51:00.422Z,9.80
2022-12-20T11:53:34.723Z,9.60
2022-12-20T11:56:04.369Z,9.60
2022-12-20T11:58:35.110Z,9.70
2022-12-20T12:01:08.563Z,9.90
2022-12-20T12:03:38.880Z,10.10
2022-12-20T12:06:08.948Z,10.40
2022-12-20T12:08:41.476Z,10.70
2022-12-20T12:11:39.793Z,11.10
2022-12-20T12:14:02.941Z,11.30
2022-12-20T12:16:33.394Z,11.60
2022-12-20T12:19:03.591Z,11.70
2022-12-20T12:21:34.706Z,11.90
2022-12-20T12:24:04.889Z,12.00
2022-12-20T12:26:35.374Z,12.10
2022-12-20T12:29:05.398Z,12.10
2022-12-20T12:31:41.445Z,12.10
2022-12-20T12:34:18.747Z,12.10
2022-12-20T12:37:17.180Z,12.00
2022-12-20T12:39:54.385Z,11.80
2022-12-20T12:42:40.298Z,11.60
2022-12-20T12:45:09.079Z,11.50
2022-12-20T12:47:38.964Z,11.40
2022-12-20T12:50:16.779Z,11.30
2022-12-20T12:52:49.697Z,11.10
2022-12-20T12:55:38.232Z,11.10
2022-12-20T12:58:31.450Z,11.10
2022-12-20T13:01:01.176Z,11.10
2022-12-20T13:03:43.315Z,11.20
2022-12-20T13:06:30.601Z,11.10
2022-12-20T13:09:18.977Z,11.00
2022-12-20T13:11:55.516Z,10.90
2022-12-20T13:14:46.900Z,10.90
2022-12-20T13:17:34.560Z,10.70
2022-12-20T13:20:03.350Z,10.70
2022-12-20T13:22:32.329Z,10.80
2022-12-20T13:25:08.459Z,10.80
2022-12-20T13:27:39.100Z,10.80
2022-12-20T13:33:31.205Z,10.70
2022-12-20T13:36:05.184Z,10.70
2022-12-20T13:38:54.355Z,10.80
2022-12-20T13:41:35.046Z,10.90
2022-12-20T13:44:18.153Z,10.90
2022-12-20T13:46:49.159Z,10.80
2022-12-20T13:49:23.302Z,10.80
2022-12-20T13:52:08.247Z,10.60
2022-12-20T13:54:41.629Z,10.40
2022-12-20T13:57:16.745Z,10.20
2022-12-20T13:59:47.682Z,10.10
2022-12-20T14:02:21.301Z,10.00
2022-12-20T14:04:59.389Z,10.10
2022-12-20T14:07:28.684Z,10.10
2022-12-20T14:09:59.298Z,10.10
2022-12-20T14:12:36.505Z,10.00
2022-12-20T14:15:22.296Z,10.00
2022-12-20T14:17:50.664Z,10.00
2022-12-20T14:20:20.585Z,10.00
2022-12-20T14:22:53.153Z,9.90
2022-12-20T14:25:27.868Z,9.70
2022-12-20T14:28:01.156Z,9.50
2022-12-20T14:30:36.163Z,9.40
2022-12-20T14:33:06.154Z,9.30
2022-12-20T14:35:34.378Z,9.20
2022-12-20T14:38:04.344Z,9.10
2022-12-20T14:40:32.859Z,9.00
2022-12-20T14:43:15.847Z,9.00
2022-12-20T14:45:44.087Z,8.90
2022-12-20T14:48:21.862Z,8.70
2022-12-20T14:51:02.007Z,8.70
2022-12-20T14:53:30.282Z,8.70
2022-12-20T14:56:01.707Z,8.70
2022-12-20T14:58:49.182Z,8.70
2022-12-20T15:01:20.177Z,8.70
2022-12-20T15:03:52.971Z,8.80
2022-12-20T15:06:42.251Z,8.90
2022-12-20T15:09:10.947Z,8.90
2022-12-20T15:11:41.017Z,8.80
2022-12-20T15:14:21.726Z,8.60
2022-12-20T15:19:53.752Z,8.20
2022-12-20T15:22:26.246Z,8.00
2022-12-20T15:24:55.243Z,7.90
2022-12-20T15:27:32.568Z,7.80
2022-12-20T15:30:17.333Z,7.80
2022-12-20T15:32:55.194Z,7.80
2022-12-20T15:35:24.988Z,7.80
2022-12-20T15:37:55.624Z,7.80
2022-12-20T15:40:28.495Z,7.90
2022-12-20T15:42:58.443Z,8.00
2022-12-20T15:45:42.351Z,8.00
2022-12-20T15:48:14.265Z,8.00
2022-12-20T15:50:46.518Z,8.00
2022-12-20T15:53:16.197Z,8.00
2022-12-20T15:55:47.313Z,8.10
2022-12-20T15:58:16.970Z,8.00
2022-12-20T16:00:47.933Z,8.00
2022-12-20T16:03:18.804Z,7.90
2022-12-20T16:05:49.675Z,7.90
2022-12-20T16:08:20.629Z,7.90
2022-12-20T16:11:00.261Z,8.00
2022-12-20T16:13:36.415Z,7.90
2022-12-20T16:16:16.763Z,7.80
2022-12-20T16:18:46.534Z,7.70
2022-12-20T16:21:19.153Z,7.70
2022-12-20T16:23:57.938Z,7.70
2022-12-20T16:26:27.334Z,7.70
2022-12-20T16:28:55.979Z,7.80
2022-12-20T16:31:27.317Z,7.80
2022-12-20T16:33:57.202Z,7.80
2022-12-20T16:36:26.089Z,7.80
2022-12-20T16:38:55.087Z,7.80
2022-12-20T16:41:25.609Z,7.80
2022-12-20T16:43:55.044Z,7.80
2022-12-20T16:46:26.233Z,7.90
2022-12-20T16:48:56.961Z,7.90
2022-12-20T16:51:33.147Z,7.90
2022-12-20T16:54:18.968Z,7.90
2022-12-20T16:56:48.641Z,7.90
2022-12-20T16:59:19.745Z,7.80
2022-12-20T17:01:50.440Z,7.70
2022-12-20T17:04:21.274Z,7.60
2022-12-20T17:06:52.133Z,7.60
2022-12-20T17:12:12.260Z,7.30
2022-12-20T17:14:40.512Z,7.20
2022-12-20T17:17:09.883Z,7.10
2022-12-20T17:19:43.088Z,7.10
2022-12-20T17:24:59.754Z,7.00
2022-12-20T17:27:28.116Z,6.90
2022-12-20T17:29:56.051Z,6.80
2022-12-20T17:32:26.351Z,6.70
2022-12-20T17:34:56.855Z,6.80
2022-12-20T17:37:25.197Z,6.80
2022-12-20T17:39:53.503Z,6.80
2022-12-20T17:42:27.177Z,6.80
2022-12-20T17:44:59.861Z,6.90
2022-12-20T17:47:30.057Z,7.00
2022-12-20T17:50:00.832Z,7.00
2022-12-20T17:52:30.723Z,7.00
2022-12-20T17:55:00.369Z,7.00
2022-12-20T17:57:28.835Z,7.00
2022-12-20T17:59:58.245Z,7.00
2022-12-20T18:02:27.512Z,7.00
2022-12-20T18:04:56.642Z,7.10
2022-12-20T18:07:26.627Z,7.10
2022-12-20T18:09:55.051Z,7.10
2022-12-20T18:12:23.632Z,7.20
2022-12-20T18:14:53.337Z,7.20
2022-12-20T18:17:23.035Z,7.30
2022-12-20T18:19:55.925Z,7.20
2022-12-20T18:25:24.128Z,7.20
2022-12-20T18:31:15.132Z,7.10
2022-12-20T18:33:43.491Z,6.80
2022-12-20T18:36:14.919Z,6.60
2022-12-20T18:38:44.616Z,6.40
2022-12-20T18:41:13.849Z,6.40
2022-12-20T18:43:43.478Z,6.30
2022-12-20T18:46:15.077Z,6.30
2022-12-20T18:48:44.488Z,6.30
2022-12-20T18:51:13.830Z,6.30
2022-12-20T18:53:43.642Z,6.30
2022-12-20T18:56:16.373Z,6.30
2022-12-20T18:58:47.324Z,6.40
2022-12-20T19:01:18.134Z,6.40
2022-12-20T19:03:51.102Z,6.30
2022-12-20T19:06:22.606Z,6.30
2022-12-20T19:08:51.987Z,6.30
2022-12-20T19:11:23.335Z,6.20
2022-12-20T19:17:11.000Z,6.10
2022-12-20T19:22:30.798Z,6.10
2022-12-20T19:24:59.220Z,6.10
2022-12-20T19:27:29.199Z,6.10
2022-12-20T19:29:58.213Z,6.10
2022-12-20T19:32:29.045Z,6.20
2022-12-20T19:35:11.303Z,6.20
2022-12-20T19:37:49.657Z,6.30
2022-12-20T19:40:18.738Z,6.40
2022-12-20T19:42:47.483Z,6.50
2022-12-20T19:45:17.541Z,6.60
2022-12-20T19:47:47.305Z,6.70
2022-12-20T19:50:17.423Z,6.80
2022-12-20T19:52:46.745Z,6.80
2022-12-20T19:55:15.484Z,6.90
2022-12-20T19:57:44.311Z,6.90
2022-12-20T20:00:15.328Z,6.90
2022-12-20T20:02:43.948Z,6.90
2022-12-20T20:05:15.213Z,7.00
2022-12-20T20:07:44.935Z,7.00
2022-12-20T20:10:13.402Z,7.00
2022-12-20T20:12:42.331Z,7.00
2022-12-20T20:15:11.368Z,7.00
2022-12-20T20:17:41.728Z,7.00
2022-12-20T20:20:13.072Z,7.00
2022-12-20T20:22:41.448Z,6.80
2022-12-20T20:25:12.030Z,6.70
2022-12-20T20:27:42.905Z,6.70
2022-12-20T20:30:15.356Z,6.70
2022-12-20T20:32:44.496Z,6.60
2022-12-20T20:35:12.853Z,6.50
2022-12-20T20:37:41.523Z,6.30
2022-12-20T20:40:14.116Z,6.10
2022-12-20T20:42:44.913Z,6.00
2022-12-20T20:45:13.038Z,5.80
2022-12-20T20:47:41.191Z,5.80
2022-12-20T20:50:10.362Z,5.70
2022-12-20T20:52:39.536Z,5.80
2022-12-20T20:55:11.379Z,5.80
2022-12-20T20:57:41.034Z,5.90
2022-12-20T21:00:10.922Z,6.00
2022-12-20T21:02:39.457Z,6.10
2022-12-20T21:05:58.582Z,6.10
2022-12-20T21:07:56.959Z,6.20
2022-12-20T21:10:25.468Z,6.30
2022-12-20T21:12:56.061Z,6.40
2022-12-20T21:15:27.431Z,6.40
2022-12-20T21:17:56.479Z,6.40
2022-12-20T21:20:26.443Z,6.40
2022-12-20T21:22:55.301Z,6.40
2022-12-20T21:25:24.229Z,6.40
2022-12-20T21:27:52.884Z,6.40
2022-12-20T21:30:22.808Z,6.40
2022-12-20T21:32:51.193Z,6.40
2022-12-20T21:35:19.858Z,6.50
2022-12-20T21:37:49.157Z,6.70
2022-12-20T21:40:17.827Z,6.80
2022-12-20T21:42:46.253Z,6.90
2022-12-20T21:45:17.653Z,7.00
2022-12-20T21:47:48.334Z,7.10
2022-12-20T21:50:17.942Z,7.20
2022-12-20T21:52:46.378Z,7.40
2022-12-20T21:55:15.179Z,7.50
2022-12-20T21:57:44.177Z,7.60
2022-12-20T22:00:13.136Z,7.70
2022-12-20T22:02:42.013Z,7.80
2022-12-20T22:05:15.237Z,7.90
2022-12-20T22:07:44.087Z,8.10
2022-12-20T22:10:12.830Z,8.10
2022-12-20T22:12:41.111Z,8.20
2022-12-20T22:15:10.100Z,8.30
2022-12-20T22:17:38.439Z,8.40
2022-12-20T22:20:08.205Z,8.40
2022-12-20T22:22:40.118Z,8.50
2022-12-20T22:27:59.598Z,8.60
2022-12-20T22:30:28.567Z,8.60
2022-12-20T22:32:58.448Z,8.70
2022-12-20T22:35:26.807Z,8.80
2022-12-20T22:37:56.830Z,8.90
2022-12-20T22:40:26.134Z,8.90
2022-12-20T22:42:54.436Z,9.00
2022-12-20T22:45:26.567Z,9.00
2022-12-20T22:47:55.504Z,9.00
2022-12-20T22:50:25.041Z,9.00
2022-12-20T22:52:53.990Z,9.00
2022-12-20T22:55:25.709Z,8.90
2022-12-20T22:57:53.974Z,8.90
2022-12-20T23:00:23.209Z,8.90
2022-12-20T23:02:52.347Z,9.00
2022-12-20T23:05:21.003Z,9.00
2022-12-20T23:08:03.055Z,8.90
2022-12-20T23:10:55.044Z,8.90
2022-12-20T23:13:42.733Z,8.90
2022-12-20T23:16:20.303Z,8.90
2022-12-20T23:18:57.565Z,8.90
2022-12-20T23:21:44.508Z,8.90
2022-12-20T23:24:13.048Z,8.90
2022-12-20T23:26:44.539Z,8.90
2022-12-20T23:29:15.122Z,8.80
2022-12-20T23:31:47.161Z,8.90
2022-12-20T23:34:20.721Z,8.90
2022-12-20T23:36:49.330Z,8.90
2022-12-20T23:39:18.563Z,8.90
2022-12-20T23:42:18.215Z,8.90
2022-12-20T23:44:46.184Z,8.90
2022-12-20T23:47:18.942Z,8.90
2022-12-20T23:49:51.421Z,8.90
2022-12-20T23:55:13.585Z,8.80
2022-12-20T23:57:44.638Z,8.80
